createdAt,value
2024-01-17T00:03:02.589Z,35.55
2024-01-17T00:08:06.782Z,30.63
2024-01-17T00:13:10.590Z,35.30
2024-01-17T00:18:20.961Z,32.20
2024-01-17T00:23:29.762Z,26.92
2024-01-17T00:28:38.526Z,23.13
2024-01-17T00:33:43.780Z,28.10
2024-01-17T00:38:52.608Z,23.90
2024-01-17T00:43:56.273Z,26.23
2024-01-17T00:49:06.358Z,34.25
2024-01-17T00:54:11.578Z,26.23
2024-01-17T00:59:15.306Z,30.58
2024-01-17T01:04:25.302Z,35.72
2024-01-17T01:09:34.120Z,30.75
2024-01-17T01:14:37.981Z,30.48
2024-01-17T01:19:48.131Z,30.55
2024-01-17T01:24:56.761Z,36.17
2024-01-17T01:30:06.502Z,25.92
2024-01-17T01:35:16.712Z,22.45
2024-01-17T01:40:25.345Z,20.30
2024-01-17T01:45:34.075Z,17.20
2024-01-17T01:50:44.287Z,22.45
2024-01-17T01:55:48.443Z,30.73
2024-01-17T02:00:58.385Z,29.17
2024-01-17T02:06:03.820Z,28.85
2024-01-17T02:11:12.821Z,19.92
2024-01-17T02:16:21.599Z,30.52
2024-01-17T02:21:31.709Z,17.67
2024-01-17T02:26:41.832Z,23.27
2024-01-17T02:31:51.095Z,17.20
2024-01-17T02:36:59.800Z,17.63
2024-01-17T02:42:09.929Z,22.65
2024-01-17T02:47:13.617Z,21.95
2024-01-17T02:52:22.258Z,20.55
2024-01-17T02:57:32.324Z,19.85
2024-01-17T03:02:36.062Z,18.85
2024-01-17T03:07:39.690Z,16.83
2024-01-17T03:12:49.809Z,18.50
2024-01-17T03:17:58.557Z,12.77
2024-01-17T03:23:07.349Z,21.40
2024-01-17T03:28:17.507Z,16.23
2024-01-17T03:33:26.302Z,21.23
2024-01-17T03:38:30.037Z,20.85
2024-01-17T03:43:40.068Z,19.08
2024-01-17T03:48:43.933Z,26.55
2024-01-17T03:53:52.731Z,24.63
2024-01-17T03:59:03.679Z,17.45
2024-01-17T04:04:12.597Z,17.13
2024-01-17T04:09:21.524Z,19.73
2024-01-17T04:14:26.850Z,16.50
2024-01-17T04:19:30.566Z,13.90
2024-01-17T04:24:39.262Z,13.68
2024-01-17T04:29:49.335Z,12.57
2024-01-17T04:34:52.967Z,14.77
2024-01-17T04:39:56.613Z,28.15
2024-01-17T04:45:01.738Z,14.95
2024-01-17T04:50:11.782Z,15.13
2024-01-17T04:55:20.651Z,17.35
2024-01-17T05:00:30.684Z,19.40
2024-01-17T05:05:39.459Z,14.35
2024-01-17T05:10:44.799Z,16.45
2024-01-17T05:15:54.861Z,16.20
2024-01-17T05:20:58.581Z,16.50
2024-01-17T05:26:07.451Z,13.75
2024-01-17T05:31:18.000Z,14.38
2024-01-17T05:36:28.103Z,10.50
2024-01-17T05:41:32.990Z,12.95
2024-01-17T05:46:43.080Z,14.10
2024-01-17T05:51:52.344Z,10.48
2024-01-17T05:57:01.708Z,19.65
2024-01-17T06:02:11.775Z,12.18
2024-01-17T06:07:20.543Z,20.05
2024-01-17T06:12:24.209Z,16.52
2024-01-17T06:17:34.237Z,15.98
2024-01-17T06:22:42.975Z,13.70
2024-01-17T06:27:51.624Z,18.38
2024-01-17T06:32:56.779Z,15.05
2024-01-17T06:38:05.779Z,18.27
2024-01-17T06:43:14.608Z,10.70
2024-01-17T06:48:24.785Z,15.43
2024-01-17T06:53:33.811Z,13.10
2024-01-17T06:58:43.735Z,11.43
2024-01-17T07:03:53.802Z,13.88
2024-01-17T07:09:02.587Z,20.60
2024-01-17T07:14:11.345Z,9.68
2024-01-17T07:19:16.464Z,15.05
2024-01-17T07:24:25.104Z,13.73
2024-01-17T07:29:28.835Z,12.00
2024-01-17T07:34:38.982Z,13.73
2024-01-17T07:39:47.806Z,10.93
2024-01-17T07:44:56.553Z,18.92
2024-01-17T07:50:07.442Z,30.63
2024-01-17T07:55:16.624Z,15.65
2024-01-17T08:00:25.446Z,8.98
2024-01-17T08:05:35.774Z,12.27
2024-01-17T08:10:44.574Z,13.32
2024-01-17T08:15:48.618Z,13.50
2024-01-17T08:20:58.740Z,15.02
2024-01-17T08:26:08.669Z,13.90
2024-01-17T08:31:17.914Z,16.15
2024-01-17T08:36:23.303Z,15.70
2024-01-17T08:41:32.010Z,16.85
2024-01-17T08:46:46.251Z,20.45
2024-01-17T08:51:56.646Z,24.17
2024-01-17T08:57:00.323Z,23.08
2024-01-17T09:02:08.982Z,27.15
2024-01-17T09:07:14.265Z,22.42
2024-01-17T09:12:23.931Z,18.00
2024-01-17T09:17:33.489Z,13.18
2024-01-17T09:22:43.605Z,20.70
2024-01-17T09:27:52.392Z,14.65
2024-01-17T09:32:56.261Z,19.77
2024-01-17T09:38:07.559Z,23.55
2024-01-17T09:43:18.075Z,22.77
2024-01-17T09:48:27.828Z,14.63
2024-01-17T09:53:38.145Z,14.98
2024-01-17T09:58:49.190Z,15.35
2024-01-17T10:03:56.568Z,15.63
2024-01-17T10:09:07.802Z,18.50
2024-01-17T10:14:11.554Z,29.15
2024-01-17T10:19:17.363Z,19.83
2024-01-17T10:24:27.902Z,26.50
2024-01-17T10:29:40.035Z,22.23
2024-01-17T10:34:43.883Z,27.75
2024-01-17T10:40:12.933Z,20.85
2024-01-17T10:45:24.826Z,13.98
2024-01-17T10:50:34.179Z,19.02
2024-01-17T10:55:40.266Z,22.83
2024-01-17T11:00:46.477Z,11.40
2024-01-17T11:05:56.670Z,15.70
2024-01-17T11:11:10.238Z,17.45
2024-01-17T11:16:20.010Z,15.60
2024-01-17T11:21:29.379Z,20.42
2024-01-17T11:26:45.916Z,14.23
2024-01-17T11:32:01.680Z,16.25
2024-01-17T11:37:10.490Z,17.70
2024-01-17T11:42:15.882Z,20.23
2024-01-17T11:47:24.659Z,24.85
2024-01-17T11:52:36.956Z,23.75
2024-01-17T11:57:47.663Z,20.35
2024-01-17T12:02:51.373Z,25.00
2024-01-17T12:08:00.295Z,26.33
2024-01-17T12:13:10.437Z,15.52
2024-01-17T12:18:21.790Z,16.52
2024-01-17T12:23:32.728Z,23.27
2024-01-17T12:28:43.250Z,19.88
2024-01-17T12:33:52.170Z,17.25
2024-01-17T12:39:05.144Z,21.63
2024-01-17T12:44:11.034Z,21.88
2024-01-17T12:49:23.141Z,20.23
2024-01-17T12:54:32.397Z,23.65
2024-01-17T12:59:37.751Z,21.80
2024-01-17T13:05:08.075Z,25.15
2024-01-17T13:10:22.667Z,45.17
2024-01-17T13:15:28.050Z,20.88
2024-01-17T13:20:31.711Z,33.33
2024-01-17T13:25:40.370Z,38.20
2024-01-17T13:30:50.413Z,38.92
2024-01-17T13:35:55.742Z,32.17
2024-01-17T13:41:04.554Z,28.23
2024-01-17T13:46:16.960Z,45.13
2024-01-17T13:51:23.370Z,36.40
2024-01-17T13:56:32.172Z,22.57
2024-01-17T14:01:42.254Z,19.95
2024-01-17T14:11:55.694Z,29.25
2024-01-17T14:17:06.367Z,38.42
2024-01-17T14:22:15.203Z,26.42
2024-01-17T14:27:24.054Z,29.02
2024-01-17T14:32:34.221Z,34.65
2024-01-17T14:37:42.996Z,22.75
2024-01-17T14:42:46.714Z,40.60
2024-01-17T14:47:51.835Z,29.38
2024-01-17T14:53:00.509Z,19.25
2024-01-17T14:58:05.181Z,26.25
2024-01-17T15:03:15.304Z,29.98
2024-01-17T15:08:26.992Z,26.10
2024-01-17T15:13:30.775Z,39.83
2024-01-17T15:18:35.908Z,31.50
2024-01-17T15:23:45.142Z,37.65
2024-01-17T15:28:53.802Z,32.80
2024-01-17T15:34:05.273Z,33.33
2024-01-17T15:39:20.122Z,29.02
2024-01-17T15:44:30.097Z,39.83
2024-01-17T15:49:40.577Z,24.95
2024-01-17T15:54:44.374Z,31.92
2024-01-17T15:59:48.133Z,31.95
2024-01-17T16:04:58.242Z,38.83
2024-01-17T16:10:08.160Z,33.50
2024-01-17T16:15:17.115Z,30.98
2024-01-17T16:20:27.346Z,31.77
2024-01-17T16:25:36.064Z,32.08
2024-01-17T16:30:42.199Z,28.15
2024-01-17T16:35:52.261Z,31.77
2024-01-17T16:41:00.968Z,22.95
2024-01-17T16:46:09.631Z,28.80
2024-01-17T16:51:15.166Z,36.03
2024-01-17T16:56:26.128Z,37.65
2024-01-17T17:01:36.652Z,31.70
2024-01-17T17:06:42.414Z,44.78
2024-01-17T17:11:51.847Z,38.65
2024-01-17T17:17:00.652Z,35.50
2024-01-17T17:22:10.696Z,32.67
2024-01-17T17:27:15.526Z,29.30
2024-01-17T17:32:25.508Z,42.92
2024-01-17T17:37:35.940Z,37.08
2024-01-17T17:42:44.576Z,33.95
2024-01-17T17:47:53.408Z,31.15
2024-01-17T17:53:04.452Z,39.70
2024-01-17T17:58:13.460Z,38.47
2024-01-17T18:03:22.352Z,37.72
2024-01-17T18:08:32.418Z,39.85
2024-01-17T18:13:46.245Z,37.60
2024-01-17T18:18:57.396Z,31.88
2024-01-17T18:24:02.581Z,39.13
2024-01-17T18:29:11.241Z,39.20
2024-01-17T18:34:23.709Z,38.10
2024-01-17T18:39:33.932Z,40.30
2024-01-17T18:44:42.751Z,36.40
2024-01-17T18:49:47.304Z,38.75
2024-01-17T18:54:57.371Z,42.92
2024-01-17T19:00:08.101Z,40.20
2024-01-17T19:05:16.828Z,42.50
2024-01-17T19:10:27.124Z,36.90
2024-01-17T19:15:35.947Z,37.50
2024-01-17T19:20:47.140Z,40.88
2024-01-17T19:25:52.374Z,39.63
2024-01-17T19:31:01.050Z,37.78
2024-01-17T19:36:10.522Z,36.55
2024-01-17T19:41:23.681Z,45.40
2024-01-17T19:46:32.418Z,34.88
2024-01-17T19:51:41.202Z,39.53
2024-01-17T19:56:51.256Z,31.17
2024-01-17T20:01:59.989Z,36.72
2024-01-17T20:07:08.885Z,34.97
2024-01-17T20:12:15.051Z,34.20
2024-01-17T20:17:18.895Z,36.80
2024-01-17T20:22:22.640Z,42.83
2024-01-17T20:27:33.745Z,33.92
2024-01-17T20:32:42.517Z,27.47
2024-01-17T20:37:46.263Z,33.78
2024-01-17T20:42:56.341Z,48.17
2024-01-17T20:48:05.701Z,33.85
2024-01-17T20:53:14.502Z,37.45
2024-01-17T20:58:19.599Z,39.72
2024-01-17T21:03:28.281Z,36.67
2024-01-17T21:08:37.016Z,35.78
2024-01-17T21:13:47.089Z,39.30
2024-01-17T21:18:55.927Z,41.53
2024-01-17T21:23:59.759Z,36.85
2024-01-17T21:29:11.589Z,37.67
2024-01-17T21:34:15.429Z,48.03
2024-01-17T21:39:24.672Z,51.90
2024-01-17T21:44:30.445Z,43.13
2024-01-17T21:49:39.232Z,45.38
2024-01-17T21:54:42.885Z,45.78
2024-01-17T21:59:53.438Z,46.17
2024-01-17T22:05:02.223Z,41.72
2024-01-17T22:10:16.620Z,51.85
2024-01-17T22:15:22.790Z,46.13
2024-01-17T22:25:39.002Z,45.97
2024-01-17T22:30:49.159Z,47.00
2024-01-17T22:35:58.098Z,45.35
2024-01-17T22:41:01.823Z,50.63
2024-01-17T22:46:11.916Z,45.42
2024-01-17T22:51:20.624Z,49.92
2024-01-17T22:56:24.447Z,48.58
2024-01-17T23:01:34.534Z,45.20
2024-01-17T23:06:43.489Z,53.05
2024-01-17T23:11:52.320Z,51.92
2024-01-17T23:17:02.463Z,50.92
2024-01-17T23:22:11.206Z,51.67
2024-01-17T23:27:19.944Z,49.28
2024-01-17T23:32:30.107Z,46.35
2024-01-17T23:37:38.946Z,43.05
2024-01-17T23:42:42.807Z,42.88
2024-01-17T23:47:53.097Z,42.53
2024-01-17T23:53:01.902Z,51.70
2024-01-17T23:58:10.898Z,53.90
